Time;durP1;ratioP1;P1;durP2;ratioP2;P2;SDS_P1;SDS_P2;PMS_P1;PMS_P2;Temp;Humidity;BMP_temperature;BMP_pressure;BME280_temperature;BME280_humidity;BME280_pressure;Samples;Min_cycle;Max_cycle;Signal;HPM_P1;HPM_P2
2021/07/24 00:01:57;;;;;;;14.55;7.63;;;;;;;12.92;87.14;101181.56;5072755;28;20123;-77
2021/07/24 00:04:23;;;;;;;12.63;7.33;;;;;;;12.88;86.93;101177.56;5055030;28;20056;-77
2021/07/24 00:06:48;;;;;;;11.97;8.20;;;;;;;12.82;87.18;101163.00;5071547;28;20119;-77
2021/07/24 00:09:14;;;;;;;15.10;9.90;;;;;;;12.85;86.93;101169.84;5071886;28;20068;-77
2021/07/24 00:11:39;;;;;;;29.58;17.20;;;;;;;12.81;86.92;101177.41;5071619;28;20020;-76
2021/07/24 00:14:04;;;;;;;21.23;11.87;;;;;;;12.77;87.00;101161.81;5071550;28;20098;-76
2021/07/24 00:16:30;;;;;;;16.37;10.87;;;;;;;12.78;87.07;101160.81;5071536;28;20068;-77
2021/07/24 00:18:55;;;;;;;26.80;13.23;;;;;;;12.81;87.10;101173.91;5055349;28;20058;-77
2021/07/24 00:21:21;;;;;;;18.83;11.47;;;;;;;12.80;86.95;101166.84;5072750;28;20032;-77
2021/07/24 00:23:47;;;;;;;17.33;9.35;;;;;;;12.73;87.11;101161.31;5071385;28;20040;-77
2021/07/24 00:26:13;;;;;;;16.33;8.83;;;;;;;12.75;87.16;101175.38;5072240;28;20500;-77
2021/07/24 00:28:39;;;;;;;15.07;8.85;;;;;;;12.72;87.09;101177.56;5071521;28;20044;-77
2021/07/24 00:31:05;;;;;;;16.73;9.23;;;;;;;12.73;86.83;101181.91;5071461;28;20071;-77
2021/07/24 00:33:36;;;;;;;13.95;8.40;;;;;;;12.71;86.88;101186.59;5071128;28;20239;-77
2021/07/24 00:36:02;;;;;;;12.03;7.80;;;;;;;12.64;86.61;101163.16;5071058;28;20032;-77
2021/07/24 00:38:27;;;;;;;9.97;7.33;;;;;;;12.67;86.99;101176.22;5072037;28;20134;-76
2021/07/24 00:41:01;;;;;;;12.40;7.40;;;;;;;12.64;86.94;101165.84;5072314;28;20457;-76
2021/07/24 00:43:29;;;;;;;15.52;8.65;;;;;;;12.64;87.25;101165.84;5071913;28;20378;-76
2021/07/24 00:45:56;;;;;;;10.85;7.05;;;;;;;12.59;87.14;101168.16;5070870;28;20353;-76
2021/07/24 00:48:24;;;;;;;10.40;7.40;;;;;;;12.59;87.32;101178.03;5072161;28;20025;-77
2021/07/24 00:51:27;;;;;;;14.23;8.48;;;;;;;12.56;87.22;101165.81;5058832;28;20125;-77
2021/07/24 00:53:55;;;;;;;13.80;7.55;;;;;;;12.55;87.51;101163.28;5070787;28;20044;-77
2021/07/24 00:56:24;;;;;;;11.63;8.90;;;;;;;12.56;87.67;101181.06;5071543;28;20028;-77
2021/07/24 00:58:49;;;;;;;16.15;8.85;;;;;;;12.50;87.62;101165.63;5071817;28;20107;-77
2021/07/24 01:01:14;;;;;;;13.13;8.03;;;;;;;12.43;87.82;101168.13;5071000;28;20615;-77
2021/07/24 01:03:40;;;;;;;12.83;7.73;;;;;;;12.42;87.61;101164.63;5054107;28;20479;-77
2021/07/24 01:06:05;;;;;;;12.83;8.40;;;;;;;12.41;88.04;101167.47;5070204;28;20305;-76
2021/07/24 01:08:33;;;;;;;15.33;9.00;;;;;;;12.37;87.50;101168.81;5070657;28;20036;-77
2021/07/24 01:11:03;;;;;;;14.68;8.20;;;;;;;12.33;87.64;101170.13;5054359;28;20043;-77
2021/07/24 01:13:29;;;;;;;12.90;8.50;;;;;;;12.33;87.74;101170.13;5071746;28;20461;-77
2021/07/24 01:15:55;;;;;;;14.32;8.27;;;;;;;12.32;88.15;101185.34;5071146;28;20113;-77
2021/07/24 01:18:25;;;;;;;16.42;8.68;;;;;;;12.24;87.70;101155.88;5070773;28;20062;-76
2021/07/24 01:20:55;;;;;;;14.85;9.05;;;;;;;12.22;87.79;101160.53;5070629;28;20111;-77
2021/07/24 01:23:22;;;;;;;15.07;8.32;;;;;;;12.21;87.77;101162.38;5070668;28;20036;-77
2021/07/24 01:25:51;;;;;;;16.50;8.52;;;;;;;12.15;87.80;101162.19;5070922;28;20056;-77
2021/07/24 01:28:30;;;;;;;17.25;9.23;;;;;;;12.20;87.92;101171.44;5053916;28;20044;-76
2021/07/24 01:30:58;;;;;;;15.02;8.48;;;;;;;12.15;88.17;101168.41;5070348;28;20043;-76
2021/07/24 01:33:25;;;;;;;16.00;8.98;;;;;;;12.07;87.81;101171.03;5071145;28;20050;-76
2021/07/24 01:35:51;;;;;;;15.05;7.68;;;;;;;12.05;88.34;101173.03;5069679;28;20458;-77
2021/07/24 01:38:18;;;;;;;13.55;7.68;;;;;;;12.05;88.21;101173.03;5053602;28;20109;-76
2021/07/24 01:40:48;;;;;;;12.30;7.55;;;;;;;12.06;88.39;101164.03;5069869;28;20035;-77
2021/07/24 01:43:14;;;;;;;14.57;8.85;;;;;;;12.09;88.25;101155.66;5053543;28;20024;-76
2021/07/24 01:45:41;;;;;;;12.17;7.77;;;;;;;12.10;88.33;101157.34;5069842;28;20098;-77
2021/07/24 01:48:18;;;;;;;;;;;;;;;12.08;88.13;101164.72;5070081;28;20032;-76
2021/07/24 01:53:30;;;;;;;12.50;8.10;;;;;;;12.03;88.14;101158.97;5069942;28;20063;-76
2021/07/24 01:56:09;;;;;;;11.73;8.07;;;;;;;12.03;88.35;101153.63;5067633;28;20077;-77
2021/07/24 01:58:36;;;;;;;13.20;8.65;;;;;;;12.00;88.67;101149.44;5071001;28;20040;-76
2021/07/24 02:01:12;;;;;;;14.05;8.10;;;;;;;11.97;88.36;101152.44;5069653;28;20039;-76
2021/07/24 02:03:42;;;;;;;12.55;7.78;;;;;;;11.97;88.57;101159.66;5069572;28;20047;-76
2021/07/24 02:06:24;;;;;;;11.93;7.90;;;;;;;12.01;88.78;101160.97;5069288;28;20059;-76
2021/07/24 02:09:04;;;;;;;16.95;9.45;;;;;;;11.99;88.87;101146.94;5069659;28;20029;-76
2021/07/24 02:11:30;;;;;;;13.52;7.68;;;;;;;11.97;88.77;101140.91;5053005;28;20039;-76
2021/07/24 02:13:56;;;;;;;11.88;7.70;;;;;;;11.94;88.65;101143.91;5069456;28;20071;-76
2021/07/24 02:16:22;;;;;;;12.40;7.95;;;;;;;11.97;89.00;101151.63;5052159;28;20249;-77
2021/07/24 02:18:48;;;;;;;;;;;;;;;11.96;89.04;101141.91;5070683;28;20101;-76
2021/07/24 02:21:24;;;;;;;16.15;8.23;;;;;;;11.93;88.90;101140.38;5069164;28;19913;-76
2021/07/24 02:23:49;;;;;;;13.43;8.20;;;;;;;11.88;88.95;101136.53;5070348;28;20115;-76
2021/07/24 02:26:16;;;;;;;12.43;8.05;;;;;;;11.84;88.69;101139.47;5068868;28;20332;-76
2021/07/24 02:28:43;;;;;;;13.88;9.40;;;;;;;11.85;89.17;101143.00;5068995;28;20405;-76
2021/07/24 02:31:08;;;;;;;14.37;9.00;;;;;;;11.86;88.88;101131.31;5069369;28;20090;-76
2021/07/24 02:33:34;;;;;;;11.57;7.83;;;;;;;11.82;89.03;101140.63;5069137;28;20270;-77
2021/07/24 02:36:03;;;;;;;13.20;9.52;;;;;;;11.81;88.85;101139.81;5068293;28;20032;-77
2021/07/24 02:38:31;;;;;;;13.10;7.78;;;;;;;11.77;88.73;101143.78;5068319;28;20035;-77
2021/07/24 02:40:57;;;;;;;14.77;8.30;;;;;;;11.75;88.76;101140.47;5070008;28;20028;-77
2021/07/24 02:43:25;;;;;;;15.55;9.20;;;;;;;11.77;89.00;101135.78;5069417;28;20165;-77
2021/07/24 02:45:52;;;;;;;12.65;8.23;;;;;;;11.72;88.88;101124.72;5068387;28;20412;-76
2021/07/24 02:48:17;;;;;;;14.13;8.40;;;;;;;11.64;88.95;101124.69;5068663;28;20024;-76
2021/07/24 02:50:49;;;;;;;13.10;8.57;;;;;;;11.67;88.84;101119.03;5053139;28;20123;-76
2021/07/24 02:53:15;;;;;;;14.07;8.53;;;;;;;11.63;88.76;101120.34;5068703;28;20135;-77
2021/07/24 02:55:40;;;;;;;23.77;9.00;;;;;;;11.68;89.16;101123.34;5068358;28;20074;-76
2021/07/24 02:58:06;;;;;;;15.98;9.38;;;;;;;11.67;89.24;101112.84;5068618;28;20102;-77
2021/07/24 03:00:32;;;;;;;14.13;9.10;;;;;;;11.64;89.24;101110.50;5052222;28;20480;-76
2021/07/24 03:02:58;;;;;;;16.57;9.47;;;;;;;11.64;89.13;101118.53;5069601;28;20024;-76
2021/07/24 03:05:23;;;;;;;13.47;8.00;;;;;;;11.62;89.29;101118.69;5069918;28;20028;-76
2021/07/24 03:07:48;;;;;;;15.07;8.60;;;;;;;11.63;89.20;101104.28;5068143;28;20492;-76
2021/07/24 03:10:14;;;;;;;15.10;9.57;;;;;;;11.63;89.56;101109.63;5069824;28;20044;-77
2021/07/24 03:12:39;;;;;;;18.03;9.27;;;;;;;11.66;89.52;101098.63;5068592;28;20527;-77
2021/07/24 03:15:05;;;;;;;11.23;8.17;;;;;;;11.64;89.33;101105.16;5070439;28;20097;-77
2021/07/24 03:17:32;;;;;;;12.63;8.95;;;;;;;11.65;89.54;101090.78;5072470;28;20060;-77
2021/07/24 03:19:58;;;;;;;;;;;;;;;11.72;89.73;101092.63;5074187;28;20575;-76
2021/07/24 03:22:23;;;;;;;20.10;9.90;;;;;;;11.78;89.88;101089.31;5072734;28;19912;-77
2021/07/24 03:24:49;;;;;;;18.98;10.00;;;;;;;11.86;90.15;101098.38;5073277;28;20031;-77
2021/07/24 03:27:17;;;;;;;13.67;9.77;;;;;;;11.92;90.11;101097.75;5055742;28;20040;-77
2021/07/24 03:29:42;;;;;;;15.75;9.80;;;;;;;11.96;90.18;101099.09;5072466;28;20406;-77
2021/07/24 03:32:08;;;;;;;15.27;9.47;;;;;;;11.99;90.48;101078.22;5072340;28;20074;-76
2021/07/24 03:34:33;;;;;;;18.77;10.07;;;;;;;12.12;90.57;101076.88;5073092;28;20040;-77
2021/07/24 03:36:58;;;;;;;15.07;10.03;;;;;;;12.14;90.49;101082.91;5072021;28;20036;-77
2021/07/24 03:39:24;;;;;;;18.17;10.37;;;;;;;12.18;90.71;101077.06;5073085;28;20113;-76
2021/07/24 03:41:49;;;;;;;18.97;10.30;;;;;;;12.16;90.80;101071.03;5072299;28;20043;-76
2021/07/24 03:44:15;;;;;;;17.70;9.83;;;;;;;12.19;90.75;101070.69;5073020;28;20448;-77
2021/07/24 03:46:40;;;;;;;15.90;10.33;;;;;;;12.23;90.83;101068.53;5055491;28;20480;-77
2021/07/24 03:49:06;;;;;;;18.83;9.80;;;;;;;12.25;90.65;101074.56;5073147;28;20199;-76
2021/07/24 03:51:31;;;;;;;19.43;10.57;;;;;;;12.24;90.84;101060.38;5072991;28;20123;-76
2021/07/24 03:53:56;;;;;;;14.03;9.70;;;;;;;12.28;91.01;101065.38;5073085;28;20157;-76
2021/07/24 03:56:22;;;;;;;18.40;10.87;;;;;;;12.29;90.96;101056.31;5071419;28;20036;-76
2021/07/24 03:58:50;;;;;;;22.10;10.77;;;;;;;12.35;90.83;101050.31;5072262;28;20032;-77
2021/07/24 04:01:15;;;;;;;16.27;10.60;;;;;;;12.37;90.54;101061.69;5072828;28;20029;-77
2021/07/24 04:03:41;;;;;;;18.45;10.95;;;;;;;12.40;90.46;101064.03;5072968;28;20043;-77
2021/07/24 04:06:09;;;;;;;15.80;10.63;;;;;;;12.50;90.90;101059.34;5054575;28;20047;-76
2021/07/24 04:08:35;;;;;;;15.65;9.23;;;;;;;12.52;90.66;101064.53;5071972;28;20046;-76
2021/07/24 04:11:02;;;;;;;22.75;12.57;;;;;;;12.58;90.68;101067.38;5072740;28;20119;-76
2021/07/24 04:13:28;;;;;;;16.90;10.48;;;;;;;12.62;90.89;101074.09;5072712;28;20461;-76
2021/07/24 04:15:53;;;;;;;16.70;10.03;;;;;;;12.65;90.59;101071.06;5071236;28;20052;-76
2021/07/24 04:18:24;;;;;;;15.00;10.15;;;;;;;12.69;90.85;101058.19;5071753;28;20047;-76
2021/07/24 04:20:49;;;;;;;16.02;10.15;;;;;;;12.71;90.64;101066.88;5054920;28;20098;-76
2021/07/24 04:23:15;;;;;;;15.83;10.50;;;;;;;12.78;90.50;101050.97;5072477;28;20024;-76
2021/07/24 04:25:40;;;;;;;17.37;10.93;;;;;;;12.81;90.40;101062.19;5070459;28;20024;-76
2021/07/24 04:28:05;;;;;;;19.00;10.60;;;;;;;12.86;90.22;101059.84;5054205;28;20038;-77
2021/07/24 04:30:32;;;;;;;16.33;10.80;;;;;;;12.96;90.41;101051.59;5072141;28;20052;-77
2021/07/24 04:32:58;;;;;;;16.10;9.90;;;;;;;13.02;90.55;101052.78;5072084;28;20032;-77
2021/07/24 04:35:23;;;;;;;16.43;10.27;;;;;;;13.16;90.71;101053.88;5072236;28;20052;-76
2021/07/24 04:37:48;;;;;;;22.00;10.47;;;;;;;13.24;90.76;101060.06;5070722;28;20032;-77
2021/07/24 04:40:14;;;;;;;16.93;11.77;;;;;;;13.36;90.86;101057.06;5071040;28;20683;-76
2021/07/24 04:42:39;;;;;;;17.33;11.70;;;;;;;13.47;90.93;101067.41;5070947;28;20043;-77
2021/07/24 04:45:05;;;;;;;20.90;13.83;;;;;;;13.59;90.63;101066.03;5071981;28;20038;-76
2021/07/24 04:47:32;;;;;;;20.90;12.85;;;;;;;13.70;90.66;101067.50;5070640;28;20055;-77
2021/07/24 04:49:57;;;;;;;;;;;;;;;13.91;90.89;101073.06;5071743;28;20041;-76
2021/07/24 04:52:23;;;;;;;18.73;11.63;;;;;;;14.14;90.82;101075.78;5071641;28;19939;-76
2021/07/24 04:54:49;;;;;;;13.77;10.40;;;;;;;14.39;90.10;101066.72;5070772;28;20048;-76
2021/07/24 04:57:17;;;;;;;16.42;11.55;;;;;;;14.59;90.28;101070.63;5070532;28;20040;-77
2021/07/24 04:59:47;;;;;;;15.65;10.57;;;;;;;14.69;89.80;101063.13;5071003;28;20024;-76
2021/07/24 05:02:14;;;;;;;18.30;11.40;;;;;;;14.77;89.75;101067.59;5071514;28;20170;-76
2021/07/24 05:04:39;;;;;;;19.48;11.40;;;;;;;14.85;89.60;101061.31;5071477;28;20033;-76
2021/07/24 05:07:05;;;;;;;16.77;11.03;;;;;;;14.86;89.18;101071.88;5071114;28;20437;-77
2021/07/24 05:09:30;;;;;;;17.07;10.13;;;;;;;14.90;89.24;101061.59;5070738;28;20040;-76
2021/07/24 05:11:55;;;;;;;12.27;10.10;;;;;;;14.89;88.83;101067.97;5070368;28;20036;-77
2021/07/24 05:14:21;;;;;;;14.70;8.90;;;;;;;14.88;89.02;101069.84;5070508;28;20024;-76
2021/07/24 05:16:46;;;;;;;19.93;11.10;;;;;;;14.90;89.34;101061.59;5071228;28;20046;-76
2021/07/24 05:19:11;;;;;;;17.30;10.77;;;;;;;14.92;89.23;101067.63;5054014;28;20497;-76
2021/07/24 05:21:37;;;;;;;13.67;8.97;;;;;;;15.03;88.69;101082.47;5070615;28;20028;-77
2021/07/24 05:24:02;;;;;;;12.83;8.67;;;;;;;15.17;89.04;101071.75;5071163;28;20029;-77
2021/07/24 05:26:27;;;;;;;18.00;10.87;;;;;;;15.33;89.03;101089.53;5070130;28;20025;-76
2021/07/24 05:28:53;;;;;;;20.93;10.43;;;;;;;15.52;88.46;101084.63;5070074;28;20132;-77
2021/07/24 05:31:20;;;;;;;19.23;10.93;;;;;;;15.63;88.65;101078.75;5070099;28;20033;-76
2021/07/24 05:33:46;;;;;;;18.02;9.75;;;;;;;15.69;88.74;101079.88;5069866;28;20458;-76
2021/07/24 05:36:11;;;;;;;14.73;9.90;;;;;;;15.82;88.55;101080.88;5069450;28;20078;-76
2021/07/24 05:38:37;;;;;;;20.07;10.87;;;;;;;16.01;88.09;101079.47;5069745;28;20442;-76
2021/07/24 05:41:03;;;;;;;19.92;11.65;;;;;;;16.16;87.82;101092.88;5053201;28;20306;-77
2021/07/24 05:43:28;;;;;;;22.87;12.20;;;;;;;16.25;87.93;101088.22;5052056;28;20020;-76
2021/07/24 05:45:54;;;;;;;14.17;10.50;;;;;;;17.27;87.10;101097.78;5068427;28;20037;-77
2021/07/24 05:48:19;;;;;;;18.50;8.97;;;;;;;18.28;80.64;101102.59;5068309;28;20112;-77
2021/07/24 05:50:44;;;;;;;15.70;8.60;;;;;;;19.01;77.98;101112.66;5068469;28;20709;-76
2021/07/24 05:53:10;;;;;;;12.30;7.77;;;;;;;20.29;73.19;101125.63;5068984;28;20074;-77
2021/07/24 05:55:37;;;;;;;11.10;6.77;;;;;;;20.92;69.43;101114.75;5067920;28;20458;-76
2021/07/24 05:58:03;;;;;;;15.15;7.15;;;;;;;20.93;67.65;101116.44;5069657;28;20039;-76
2021/07/24 06:00:28;;;;;;;15.63;8.87;;;;;;;20.07;70.66;101108.88;5070293;28;20433;-77
2021/07/24 06:02:53;;;;;;;13.00;7.67;;;;;;;19.32;72.66;101093.06;5069792;28;20294;-76
2021/07/24 06:05:19;;;;;;;13.23;8.17;;;;;;;19.06;74.68;101105.59;5070437;28;20123;-76
2021/07/24 06:07:44;;;;;;;10.32;7.28;;;;;;;19.28;75.44;101095.34;5069564;28;20064;-77
2021/07/24 06:10:10;;;;;;;13.67;8.53;;;;;;;20.57;70.39;101120.66;5052960;28;20504;-76
2021/07/24 06:12:35;;;;;;;11.07;7.33;;;;;;;21.37;67.01;101133.53;5069773;28;20572;-77
2021/07/24 06:15:01;;;;;;;10.30;7.33;;;;;;;22.20;63.95;101132.19;5069208;28;20313;-77
2021/07/24 06:17:26;;;;;;;12.57;6.43;;;;;;;22.60;62.80;101125.38;5069391;28;20040;-77
2021/07/24 06:19:51;;;;;;;13.50;7.20;;;;;;;22.65;63.21;101126.31;5070509;28;20600;-77
2021/07/24 06:22:17;;;;;;;11.17;5.97;;;;;;;23.00;61.12;101124.75;5069366;28;20025;-77
2021/07/24 06:24:42;;;;;;;11.80;7.60;;;;;;;23.41;59.59;101126.47;5070113;28;20043;-77
2021/07/24 06:27:07;;;;;;;10.00;6.03;;;;;;;23.64;59.84;101125.63;5069220;28;20107;-77
2021/07/24 06:29:33;;;;;;;10.40;6.67;;;;;;;23.75;58.18;101123.97;5069375;28;20834;-77
2021/07/24 06:31:58;;;;;;;10.43;6.73;;;;;;;24.07;58.06;101118.06;5070068;28;20424;-77
2021/07/24 06:34:24;;;;;;;14.73;6.53;;;;;;;24.55;55.71;101133.16;5052259;28;20531;-74
2021/07/24 06:36:49;;;;;;;10.47;6.90;;;;;;;24.17;57.45;101107.34;5068767;28;20357;-78
2021/07/24 06:39:15;;;;;;;12.17;7.10;;;;;;;24.51;56.10;101121.91;5069832;28;20119;-77
2021/07/24 06:41:41;;;;;;;7.75;6.50;;;;;;;24.20;57.11;101106.84;5051784;28;20064;-77
2021/07/24 06:44:07;;;;;;;17.27;6.32;;;;;;;24.58;56.19;101098.03;5069861;28;20108;-74
2021/07/24 06:46:33;;;;;;;13.48;6.22;;;;;;;23.84;57.27;101083.53;5068575;28;20505;-76
2021/07/24 06:48:59;;;;;;;12.17;7.30;;;;;;;23.26;59.08;101072.50;5068206;28;20055;-74
2021/07/24 06:51:25;;;;;;;8.73;5.60;;;;;;;24.25;56.73;101087.84;5069927;28;20054;-76
2021/07/24 06:53:50;;;;;;;14.40;6.38;;;;;;;23.87;57.27;101070.25;5070153;28;20036;-77
2021/07/24 06:56:15;;;;;;;13.53;7.20;;;;;;;23.41;59.45;101055.66;5068300;28;20036;-77
2021/07/24 06:58:41;;;;;;;12.00;6.43;;;;;;;23.92;58.19;101073.06;5069926;28;20040;-77
2021/07/24 07:01:09;;;;;;;8.53;5.77;;;;;;;24.07;57.36;101074.41;5069532;28;20040;-75
2021/07/24 07:03:35;;;;;;;9.98;6.63;;;;;;;23.30;58.79;101061.97;5069024;28;20294;-75
2021/07/24 07:06:04;;;;;;;10.23;6.60;;;;;;;22.66;61.11;101049.03;5068602;28;20074;-75
2021/07/24 07:08:29;;;;;;;9.70;6.00;;;;;;;22.71;61.38;101046.47;5069214;28;20488;-75
2021/07/24 07:11:00;;;;;;;8.83;6.30;;;;;;;22.48;61.83;101047.25;5068820;28;20059;-75
2021/07/24 07:13:26;;;;;;;12.43;5.95;;;;;;;23.11;59.93;101062.09;5069988;28;20048;-74
2021/07/24 07:15:51;;;;;;;10.93;5.67;;;;;;;23.01;59.37;101042.81;5069531;28;20024;-75
2021/07/24 07:18:16;;;;;;;8.97;5.43;;;;;;;23.44;58.92;101054.38;5068764;28;20041;-74
2021/07/24 07:20:42;;;;;;;10.23;5.63;;;;;;;23.29;58.69;101041.22;5052211;28;20094;-74
2021/07/24 07:23:07;;;;;;;11.30;5.57;;;;;;;23.18;59.21;101043.75;5068592;28;20052;-74
2021/07/24 07:25:33;;;;;;;10.88;6.18;;;;;;;22.85;60.45;101041.63;5068745;28;20032;-74
2021/07/24 07:27:58;;;;;;;7.90;5.73;;;;;;;22.31;61.35;101019.91;5068598;28;20071;-75
2021/07/24 07:30:23;;;;;;;11.30;6.07;;;;;;;22.13;61.92;101036.28;5068856;28;20093;-76
2021/07/24 07:32:49;;;;;;;11.63;5.63;;;;;;;22.97;60.22;101045.16;5069202;28;20036;-76
2021/07/24 07:35:14;;;;;;;10.47;5.17;;;;;;;23.27;58.72;101044.22;5068627;28;20071;-76
2021/07/24 07:37:50;;;;;;;8.73;5.63;;;;;;;22.73;59.36;101029.88;5068305;28;20029;-74
2021/07/24 07:40:20;;;;;;;9.90;4.85;;;;;;;23.44;57.91;101027.13;5069627;28;20036;-74
2021/07/24 07:42:45;;;;;;;9.80;4.72;;;;;;;23.84;56.03;101037.19;5069407;28;20597;-74
2021/07/24 07:45:10;;;;;;;9.20;5.17;;;;;;;24.19;55.46;101026.09;5051759;28;20119;-74
2021/07/24 07:47:37;;;;;;;7.97;4.93;;;;;;;24.13;54.51;101022.44;5051338;28;20036;-75
2021/07/24 07:50:04;;;;;;;12.68;5.65;;;;;;;24.23;53.84;101008.16;5069569;28;20070;-74
2021/07/24 07:52:29;;;;;;;7.78;5.13;;;;;;;22.65;57.51;101000.31;5051521;28;20584;-75
2021/07/24 07:54:55;;;;;;;11.93;5.20;;;;;;;22.52;57.30;100995.91;5068305;28;20056;-75
2021/07/24 07:57:20;;;;;;;10.30;5.20;;;;;;;21.65;59.61;100989.06;5051289;28;20290;-74
2021/07/24 07:59:45;;;;;;;8.47;6.33;;;;;;;21.84;60.13;100980.84;5069413;28;20029;-76
2021/07/24 08:02:11;;;;;;;8.90;5.17;;;;;;;23.03;56.68;101004.44;5072995;28;20032;-76
2021/07/24 08:04:36;;;;;;;6.90;4.53;;;;;;;23.95;53.30;101003.56;5054024;28;20123;-77
2021/07/24 08:07:01;;;;;;;6.07;3.97;;;;;;;24.55;51.43;101015.81;5071175;28;20050;-74
2021/07/24 08:09:27;;;;;;;6.37;4.40;;;;;;;23.73;50.67;101006.16;5073038;28;20036;-74
2021/07/24 08:11:52;;;;;;;13.57;5.53;;;;;;;24.06;51.99;101002.69;5072239;28;20060;-75
2021/07/24 08:14:17;;;;;;;8.27;4.43;;;;;;;23.24;53.19;100975.75;5054896;28;20032;-75
2021/07/24 08:16:44;;;;;;;7.60;4.87;;;;;;;22.98;54.67;100991.53;5071793;28;20021;-74
2021/07/24 08:19:09;;;;;;;5.70;4.22;;;;;;;22.73;55.22;100979.03;5071970;28;20453;-75
2021/07/24 08:21:35;;;;;;;9.77;4.87;;;;;;;22.39;56.03;100975.22;5055024;28;20119;-74
2021/07/24 08:24:00;;;;;;;9.13;5.27;;;;;;;22.52;56.35;100976.88;5071118;28;20072;-75
2021/07/24 08:26:25;;;;;;;12.60;5.57;;;;;;;23.28;55.02;100990.56;5072341;28;20032;-75
2021/07/24 08:28:51;;;;;;;9.00;5.00;;;;;;;23.14;54.32;100979.94;5071310;28;20040;-77
2021/07/24 08:31:16;;;;;;;9.20;4.93;;;;;;;23.08;55.11;100989.03;5072299;28;20409;-74
2021/07/24 08:33:41;;;;;;;8.47;4.57;;;;;;;22.47;55.39;100969.41;5054612;28;20071;-74
2021/07/24 08:36:07;;;;;;;8.30;5.23;;;;;;;22.55;56.64;100973.69;5070767;28;20469;-74
2021/07/24 08:38:32;;;;;;;8.95;5.03;;;;;;;22.97;54.64;100973.53;5071553;28;20043;-74
2021/07/24 08:40:58;;;;;;;9.07;5.00;;;;;;;23.39;54.62;100976.06;5072659;28;20047;-74
2021/07/24 08:43:23;;;;;;;12.40;5.17;;;;;;;23.63;51.99;100959.63;5072601;28;20541;-75
2021/07/24 08:45:48;;;;;;;8.27;4.53;;;;;;;23.48;52.31;100962.88;5070493;28;20028;-75
2021/07/24 08:48:14;;;;;;;7.47;4.90;;;;;;;24.47;50.97;100964.34;5072665;28;20032;-74
2021/07/24 08:50:43;;;;;;;5.97;4.93;;;;;;;24.64;50.55;100962.44;5072323;28;20344;-75
2021/07/24 08:53:09;;;;;;;8.30;4.78;;;;;;;24.93;49.40;100973.22;5054708;28;20028;-75
2021/07/24 08:55:35;;;;;;;9.63;4.93;;;;;;;25.66;46.82;100976.56;5070881;28;20037;-75
2021/07/24 08:58:01;;;;;;;6.88;4.43;;;;;;;26.35;46.46;100980.50;5072008;28;20043;-75
2021/07/24 09:00:28;;;;;;;11.00;4.85;;;;;;;26.17;45.41;100976.25;5072061;28;20032;-75
2021/07/24 09:02:57;;;;;;;;;;;;;;;24.79;47.91;100957.19;5071586;28;20047;-75
2021/07/24 09:05:23;;;;;;;8.68;3.90;;;;;;;24.57;49.08;100953.63;5054236;28;19960;-75
2021/07/24 09:07:50;;;;;;;9.77;4.18;;;;;;;23.84;50.57;100949.97;5070659;28;20880;-75
2021/07/24 09:10:17;;;;;;;7.05;4.25;;;;;;;23.71;50.56;100945.59;5070967;28;20035;-75
2021/07/24 09:12:47;;;;;;;6.90;4.93;;;;;;;23.93;50.69;100946.59;5071233;28;20071;-75
2021/07/24 09:15:15;;;;;;;8.40;4.90;;;;;;;24.26;49.15;100953.13;5071659;28;20036;-75
2021/07/24 09:17:41;;;;;;;6.88;4.78;;;;;;;23.68;50.75;100943.38;5070863;28;20051;-74
2021/07/24 09:20:07;;;;;;;8.13;4.95;;;;;;;23.83;50.50;100943.66;5070879;28;20036;-75
2021/07/24 09:22:36;;;;;;;;;;;;;;;23.66;49.99;100937.34;5071594;28;20032;-74
2021/07/24 09:25:02;;;;;;;7.38;4.70;;;;;;;23.23;51.50;100927.81;5069677;28;19916;-74
2021/07/24 09:27:27;;;;;;;7.73;4.73;;;;;;;23.02;52.48;100927.41;5053323;28;20518;-77
2021/07/24 09:29:52;;;;;;;10.80;5.10;;;;;;;24.14;51.52;100941.44;5070219;28;20079;-74
2021/07/24 09:32:18;;;;;;;8.23;4.47;;;;;;;24.65;50.49;100939.53;5069936;28;20642;-74
2021/07/24 09:34:45;;;;;;;10.87;5.33;;;;;;;23.98;50.55;100934.94;5069898;28;20039;-74
2021/07/24 09:37:31;;;;;;;9.32;4.65;;;;;;;23.71;51.13;100929.25;5053454;28;20354;-75
2021/07/24 09:40:17;;;;;;;7.45;4.88;;;;;;;24.05;51.38;100940.22;5052585;28;20029;-75
2021/07/24 09:42:43;;;;;;;7.13;4.32;;;;;;;25.75;45.84;100942.19;5051863;28;20044;-75
2021/07/24 09:45:10;;;;;;;8.13;4.10;;;;;;;25.54;46.61;100946.63;5051661;28;20032;-76
2021/07/24 09:47:35;;;;;;;10.98;4.43;;;;;;;24.28;48.79;100907.31;5068469;28;20029;-75
2021/07/24 09:50:15;;;;;;;8.60;4.95;;;;;;;24.95;48.86;100927.38;5053559;28;20086;-76
2021/07/24 09:52:45;;;;;;;5.45;3.65;;;;;;;24.27;49.45;100911.09;5069788;28;20143;-76
2021/07/24 09:55:17;;;;;;;5.95;3.88;;;;;;;25.95;46.14;100935.31;5069958;28;20117;-76
2021/07/24 09:57:44;;;;;;;7.68;4.22;;;;;;;26.67;44.88;100939.41;5052680;28;20367;-76
2021/07/24 10:00:26;;;;;;;5.75;4.10;;;;;;;25.63;46.57;100922.41;5071059;28;20123;-76
2021/07/24 10:03:05;;;;;;;6.15;3.60;;;;;;;25.46;46.97;100917.06;5070594;28;20056;-76
2021/07/24 10:05:38;;;;;;;7.60;4.22;;;;;;;26.00;46.61;100927.16;5069663;28;20024;-76
2021/07/24 10:08:13;;;;;;;12.20;4.18;;;;;;;24.68;46.81;100909.00;5069531;28;20078;-76
2021/07/24 10:10:40;;;;;;;5.90;4.03;;;;;;;23.72;49.92;100903.66;5069885;28;20036;-76
2021/07/24 10:13:11;;;;;;;6.22;4.82;;;;;;;22.94;51.60;100900.50;5070514;28;20106;-77
2021/07/24 10:15:41;;;;;;;6.47;3.97;;;;;;;23.83;49.96;100913.66;5069490;28;20063;-77
2021/07/24 10:18:09;;;;;;;7.85;3.90;;;;;;;24.13;48.70;100912.53;5052787;28;20413;-77
2021/07/24 10:20:47;;;;;;;7.15;3.80;;;;;;;24.54;45.18;100905.81;5053005;28;20026;-77
2021/07/24 10:23:15;;;;;;;5.70;4.13;;;;;;;22.52;51.99;100887.09;5069239;28;20108;-77
2021/07/24 10:25:59;;;;;;;7.68;4.07;;;;;;;22.67;52.60;100898.31;5069655;28;20035;-78
2021/07/24 10:28:34;;;;;;;9.25;4.40;;;;;;;24.50;49.54;100909.28;5052680;28;20381;-76
2021/07/24 10:31:13;;;;;;;7.82;5.00;;;;;;;24.91;46.36;100904.38;5069633;28;20040;-76
2021/07/24 10:33:39;;;;;;;7.90;3.72;;;;;;;24.78;47.63;100906.41;5070145;28;20036;-77
2021/07/24 10:36:18;;;;;;;7.15;4.30;;;;;;;24.01;47.56;100893.53;5068841;28;20099;-77
2021/07/24 10:38:58;;;;;;;8.63;3.95;;;;;;;23.48;48.98;100892.84;5070114;28;20362;-78
2021/07/24 10:41:23;;;;;;;9.75;3.88;;;;;;;23.33;50.63;100896.13;5069464;28;20041;-77
2021/07/24 10:43:59;;;;;;;;;;;;;;;24.29;47.46;100906.22;5070561;28;20158;-76
2021/07/24 10:46:45;;;;;;;7.53;4.70;;;;;;;23.64;49.36;100902.13;5068962;28;19916;-77
2021/07/24 10:49:22;;;;;;;9.05;4.95;;;;;;;23.96;49.30;100893.44;5045048;28;20058;-76
2021/07/24 10:51:58;;;;;;;5.47;4.15;;;;;;;23.78;48.64;100887.16;5070002;28;20063;-76
2021/07/24 10:54:24;;;;;;;9.60;4.90;;;;;;;24.13;47.39;100894.25;5068847;28;20036;-76
2021/07/24 10:56:50;;;;;;;8.77;4.93;;;;;;;24.45;48.23;100915.47;5052189;28;20043;-77
2021/07/24 10:59:26;;;;;;;10.40;5.82;;;;;;;26.16;43.78;100920.72;5069061;28;20032;-77
2021/07/24 11:01:52;;;;;;;;;;;;;;;26.89;41.37;100923.63;5069628;28;20068;-77
2021/07/24 11:04:36;;;;;;;6.38;4.97;;;;;;;25.43;43.37;100895.72;5052008;28;20002;-77
2021/07/24 11:07:17;;;;;;;8.55;4.72;;;;;;;25.68;44.60;100909.63;5052253;28;20041;-77
2021/07/24 11:09:47;;;;;;;6.57;4.82;;;;;;;26.84;41.78;100920.88;5068883;28;20039;-76
2021/07/24 11:12:16;;;;;;;6.50;4.72;;;;;;;26.35;42.72;100906.63;5052242;28;20047;-76
2021/07/24 11:14:49;;;;;;;5.68;5.05;;;;;;;26.24;43.12;100908.44;5051830;28;20040;-76
2021/07/24 11:17:18;;;;;;;6.30;4.22;;;;;;;26.51;42.20;100911.09;5068709;28;20037;-76
2021/07/24 11:19:50;;;;;;;8.85;5.25;;;;;;;25.88;43.13;100898.06;5069799;28;20051;-76
2021/07/24 11:22:22;;;;;;;7.53;4.53;;;;;;;27.21;40.56;100908.19;5068820;28;20041;-77
2021/07/24 11:24:50;;;;;;;10.80;5.05;;;;;;;26.08;41.59;100891.94;5068642;28;20119;-77